Time;durP1;ratioP1;P1;durP2;ratioP2;P2;SDS_P1;SDS_P2;PMS_P1;PMS_P2;Temp;Humidity;BMP_temperature;BMP_pressure;BME280_temperature;BME280_humidity;BME280_pressure;Samples;Min_cycle;Max_cycle;Signal;HPM_P1;HPM_P2
2023/11/04 00:00:15;;;;;;;8.83;8.13;;;22.10;75.50;;;;;;5014675;28;20536;-63
2023/11/04 00:02:42;;;;;;;8.73;8.33;;;22.10;75.70;;;;;;5014718;28;20554;-63
2023/11/04 00:05:09;;;;;;;8.47;8.13;;;22.10;75.70;;;;;;5014492;28;20489;-63
2023/11/04 00:07:37;;;;;;;8.77;8.30;;;22.10;75.70;;;;;;5029003;28;20883;-63
2023/11/04 00:10:05;;;;;;;9.00;8.70;;;22.10;75.60;;;;;;5034133;28;20954;-64
2023/11/04 00:12:33;;;;;;;8.90;8.50;;;22.10;75.50;;;;;;5034241;28;20516;-63
2023/11/04 00:15:00;;;;;;;8.53;8.13;;;22.10;75.50;;;;;;5034049;28;20489;-64
2023/11/04 00:17:27;;;;;;;7.97;7.70;;;22.00;75.40;;;;;;5020572;28;20485;-64
2023/11/04 00:19:54;;;;;;;8.47;8.17;;;22.00;75.30;;;;;;5014357;28;20802;-63
2023/11/04 00:22:21;;;;;;;8.13;7.83;;;22.00;75.20;;;;;;5014254;28;20438;-63
2023/11/04 00:24:53;;;;;;;9.07;8.67;;;22.00;75.30;;;;;;5014079;28;20497;-63
2023/11/04 00:27:19;;;;;;;8.43;8.10;;;22.00;75.30;;;;;;5015056;28;20450;-64
2023/11/04 00:29:48;;;;;;;8.70;8.20;;;22.00;75.20;;;;;;5014038;28;20478;-64
2023/11/04 00:32:15;;;;;;;8.00;7.60;;;22.00;75.20;;;;;;5013840;28;20508;-63
2023/11/04 00:34:43;;;;;;;7.50;7.30;;;22.00;75.10;;;;;;5013819;28;20461;-63
2023/11/04 00:37:10;;;;;;;8.50;8.00;;;22.00;75.20;;;;;;5014243;28;20450;-63
2023/11/04 00:39:37;;;;;;;8.20;7.63;;;22.00;75.10;;;;;;5013521;28;20438;-63
2023/11/04 00:42:04;;;;;;;7.60;7.30;;;22.00;75.10;;;;;;5013709;28;20512;-64
2023/11/04 00:44:31;;;;;;;8.97;8.47;;;22.00;75.20;;;;;;5015480;28;20498;-63
2023/11/04 00:46:59;;;;;;;7.80;7.50;;;22.00;75.50;;;;;;5033621;28;20469;-64
2023/11/04 00:49:26;;;;;;;8.40;8.20;;;22.00;75.50;;;;;;5033516;28;20841;-63
2023/11/04 00:51:53;;;;;;;8.40;8.10;;;22.00;75.50;;;;;;5033380;28;20488;-63
2023/11/04 00:54:20;;;;;;;8.00;7.80;;;21.90;75.40;;;;;;5032554;28;20517;-63
2023/11/04 00:56:47;;;;;;;8.57;8.20;;;22.00;75.50;;;;;;5013691;28;21008;-64
2023/11/04 00:59:13;;;;;;;7.77;7.37;;;21.90;75.40;;;;;;5013500;28;20491;-64
2023/11/04 01:01:41;;;;;;;8.70;8.30;;;21.90;75.40;;;;;;5013275;28;20482;-63
2023/11/04 01:04:09;;;;;;;7.63;7.33;;;21.90;75.20;;;;;;5025254;28;20806;-64
2023/11/04 01:06:36;;;;;;;8.00;7.80;;;21.90;75.30;;;;;;5033084;28;20536;-63
2023/11/04 01:09:04;;;;;;;7.93;7.50;;;21.90;75.30;;;;;;5033062;28;20830;-63
2023/11/04 01:11:31;;;;;;;7.90;7.70;;;21.90;75.20;;;;;;5033041;28;20856;-63
2023/11/04 01:13:59;;;;;;;7.87;7.50;;;21.90;75.10;;;;;;5021948;28;20532;-63
2023/11/04 01:16:25;;;;;;;7.93;7.60;;;21.90;75.10;;;;;;5013193;28;20504;-63
2023/11/04 01:18:52;;;;;;;8.37;8.07;;;21.90;75.10;;;;;;5013085;28;20442;-63
2023/11/04 01:21:21;;;;;;;8.33;8.03;;;21.90;75.00;;;;;;5012971;28;20446;-64
2023/11/04 01:23:48;;;;;;;8.60;8.30;;;21.90;75.00;;;;;;5021761;28;20469;-63
2023/11/04 01:26:15;;;;;;;7.47;7.17;;;21.90;74.90;;;;;;5032650;28;20477;-63
2023/11/04 01:28:42;;;;;;;7.27;7.07;;;21.90;75.00;;;;;;5032480;28;20779;-63
2023/11/04 01:31:09;;;;;;;8.20;7.90;;;21.90;75.00;;;;;;5032704;28;20872;-64
2023/11/04 01:33:35;;;;;;;8.60;8.27;;;21.90;75.20;;;;;;5025267;28;20552;-63
2023/11/04 01:36:03;;;;;;;7.57;7.37;;;21.90;75.30;;;;;;5012886;28;20520;-64
2023/11/04 01:38:32;;;;;;;7.70;7.40;;;21.90;75.30;;;;;;5012676;28;20446;-63
2023/11/04 01:40:58;;;;;;;7.77;7.57;;;21.90;75.20;;;;;;5012729;28;20956;-64
2023/11/04 01:43:27;;;;;;;8.10;7.80;;;21.90;75.20;;;;;;5017707;28;20472;-63
2023/11/04 01:46:13;;;;;;;7.17;7.00;;;21.90;75.30;;;;;;5032131;28;20465;-63
2023/11/04 01:48:41;;;;;;;8.30;7.90;;;21.90;75.10;;;;;;5032387;28;20469;-63
2023/11/04 01:51:08;;;;;;;7.80;7.60;;;21.90;75.00;;;;;;5031517;28;20477;-63
2023/11/04 01:53:37;;;;;;;7.70;7.50;;;21.90;75.10;;;;;;5025486;28;20853;-64
2023/11/04 01:56:07;;;;;;;7.30;7.10;;;21.90;75.00;;;;;;5012263;28;20547;-63
2023/11/04 01:58:36;;;;;;;7.57;7.30;;;21.80;74.90;;;;;;5012446;28;20448;-64
2023/11/04 02:01:04;;;;;;;7.20;7.00;;;21.90;74.90;;;;;;5012344;28;20481;-64
2023/11/04 02:03:31;;;;;;;7.60;7.37;;;21.80;74.80;;;;;;5017576;28;20452;-63
2023/11/04 02:05:58;;;;;;;8.00;7.37;;;21.80;74.80;;;;;;5031993;28;20822;-63
2023/11/04 02:08:25;;;;;;;7.60;7.30;;;21.80;74.90;;;;;;5032136;28;20449;-64
2023/11/04 02:10:53;;;;;;;7.80;7.60;;;21.80;75.10;;;;;;5031932;28;20488;-63
2023/11/04 02:13:20;;;;;;;7.60;7.20;;;21.80;75.10;;;;;;5013843;28;20939;-63
2023/11/04 02:15:47;;;;;;;7.40;7.20;;;21.80;75.00;;;;;;5012563;28;20528;-64
2023/11/04 02:18:14;;;;;;;8.03;7.73;;;21.80;74.90;;;;;;5012356;28;20508;-64
2023/11/04 02:20:44;;;;;;;8.57;8.27;;;21.80;74.80;;;;;;5012157;28;20473;-63
2023/11/04 02:23:13;;;;;;;7.63;7.43;;;21.80;74.80;;;;;;5028052;28;21003;-64
2023/11/04 02:25:39;;;;;;;7.83;7.63;;;21.80;74.60;;;;;;5032023;28;20882;-63
2023/11/04 02:28:06;;;;;;;8.00;7.60;;;21.80;74.70;;;;;;5031883;28;20542;-63
2023/11/04 02:30:33;;;;;;;7.70;7.50;;;21.80;74.70;;;;;;5031692;28;20508;-65
2023/11/04 02:33:00;;;;;;;7.83;7.67;;;21.80;74.70;;;;;;5017028;28;20482;-63
2023/11/04 02:35:27;;;;;;;7.30;7.10;;;21.80;74.70;;;;;;5011970;28;20545;-63
2023/11/04 02:37:54;;;;;;;7.30;7.10;;;21.90;74.90;;;;;;5012030;28;20877;-63
2023/11/04 02:40:22;;;;;;;8.20;8.00;;;21.80;74.70;;;;;;5011848;28;20474;-63
2023/11/04 02:42:49;;;;;;;8.07;7.80;;;21.80;74.60;;;;;;5024121;28;20480;-63
2023/11/04 02:45:16;;;;;;;6.77;6.67;;;21.80;74.60;;;;;;5018327;28;20571;-63
2023/11/04 02:47:44;;;;;;;7.30;7.10;;;21.80;74.50;;;;;;5030765;28;20488;-63
2023/11/04 02:50:13;;;;;;;7.33;7.13;;;21.80;74.70;;;;;;5017274;28;20454;-63
2023/11/04 02:52:40;;;;;;;7.00;6.90;;;21.80;74.90;;;;;;5011986;28;20446;-63
2023/11/04 02:55:07;;;;;;;7.47;7.27;;;21.80;75.00;;;;;;5041487;22;21094;-69
2023/11/04 02:57:36;;;;;;;7.20;7.10;;;21.80;74.90;;;;;;5033000;28;20469;-69
2023/11/04 03:00:05;;;;;;;6.97;6.87;;;21.80;74.70;;;;;;5027832;28;20460;-69
2023/11/04 03:02:32;;;;;;;7.00;6.80;;;21.80;74.70;;;;;;5033945;28;20471;-69
2023/11/04 03:04:59;;;;;;;7.70;7.50;;;21.80;74.60;;;;;;5036634;28;20500;-68
2023/11/04 03:07:26;;;;;;;7.10;6.90;;;21.80;74.50;;;;;;5025360;28;20456;-69
2023/11/04 03:09:53;;;;;;;6.90;6.70;;;21.80;74.50;;;;;;5026624;28;20481;-69
2023/11/04 03:12:20;;;;;;;6.63;6.43;;;21.80;74.60;;;;;;5025501;28;20481;-69
2023/11/04 03:14:48;;;;;;;6.90;6.70;;;21.80;74.40;;;;;;5024604;28;20486;-69
2023/11/04 03:17:16;;;;;;;6.50;6.30;;;21.80;74.30;;;;;;5026347;28;20485;-69
2023/11/04 03:19:45;;;;;;;7.07;6.90;;;21.80;74.30;;;;;;5028402;28;20835;-69
2023/11/04 03:22:12;;;;;;;7.07;6.87;;;21.80;74.50;;;;;;5026835;28;20451;-69
2023/11/04 03:24:44;;;;;;;6.40;6.30;;;21.80;74.50;;;;;;5025076;28;20465;-69
2023/11/04 03:27:12;;;;;;;6.60;6.50;;;21.80;74.50;;;;;;5024225;28;20522;-70
2023/11/04 03:29:39;;;;;;;6.97;6.67;;;21.80;74.50;;;;;;5027658;28;20444;-69
2023/11/04 03:32:08;;;;;;;7.53;7.30;;;21.80;74.50;;;;;;5027431;28;20532;-69
2023/11/04 03:34:35;;;;;;;7.43;7.20;;;21.80;74.70;;;;;;5023272;28;20528;-70
2023/11/04 03:37:02;;;;;;;6.77;6.60;;;21.80;74.80;;;;;;5023252;28;20901;-69
2023/11/04 03:39:29;;;;;;;7.00;6.90;;;21.80;74.80;;;;;;5003606;28;20451;-69
2023/11/04 03:41:56;;;;;;;6.70;6.60;;;21.80;74.80;;;;;;5020483;28;20446;-69
2023/11/04 03:44:23;;;;;;;6.80;6.50;;;21.80;74.80;;;;;;5027532;28;20468;-69
2023/11/04 03:46:50;;;;;;;6.47;6.37;;;21.80;74.90;;;;;;5026272;28;20485;-69
2023/11/04 03:49:19;;;;;;;6.97;6.87;;;21.80;74.90;;;;;;5026487;28;20880;-69
2023/11/04 03:51:45;;;;;;;6.80;6.60;;;21.80;75.20;;;;;;5027397;28;20479;-70
2023/11/04 03:54:12;;;;;;;6.57;6.47;;;21.80;75.20;;;;;;5025980;28;20559;-69
2023/11/04 03:56:39;;;;;;;7.33;7.13;;;21.80;75.30;;;;;;5023745;28;20877;-69
2023/11/04 03:59:06;;;;;;;6.47;6.37;;;21.80;75.40;;;;;;5023863;28;20478;-69
2023/11/04 04:01:39;;;;;;;6.90;6.80;;;21.80;75.40;;;;;;5027533;28;20887;-69
2023/11/04 04:04:06;;;;;;;7.10;6.90;;;21.80;75.50;;;;;;5015897;28;20526;-69
2023/11/04 04:06:35;;;;;;;7.10;7.00;;;21.90;75.50;;;;;;5027470;28;20492;-70
2023/11/04 04:09:02;;;;;;;7.17;7.07;;;21.80;75.30;;;;;;5027086;28;20469;-69
2023/11/04 04:11:29;;;;;;;7.33;7.23;;;21.90;76.00;;;;;;5023715;28;21059;-69
2023/11/04 04:13:56;;;;;;;7.03;6.83;;;21.90;75.30;;;;;;5021505;28;20509;-70
2023/11/04 04:16:23;;;;;;;6.77;6.67;;;21.90;75.30;;;;;;5026472;28;20489;-69
2023/11/04 04:18:50;;;;;;;6.80;6.70;;;21.90;75.20;;;;;;5027017;28;20440;-69
2023/11/04 04:21:17;;;;;;;6.50;6.40;;;21.90;75.10;;;;;;5024839;28;20448;-69
2023/11/04 04:23:46;;;;;;;6.50;6.40;;;21.90;75.10;;;;;;5022988;28;20478;-69
2023/11/04 04:26:21;;;;;;;6.90;6.70;;;21.90;75.40;;;;;;5025042;28;20961;-69
2023/11/04 04:28:48;;;;;;;6.90;6.80;;;21.90;75.50;;;;;;5026976;28;20432;-70
2023/11/04 04:31:15;;;;;;;6.70;6.60;;;21.90;75.50;;;;;;5025068;28;20469;-69
2023/11/04 04:33:42;;;;;;;6.50;6.40;;;21.90;75.50;;;;;;5015933;28;20454;-70
2023/11/04 04:36:09;;;;;;;6.50;6.40;;;21.90;75.70;;;;;;5022853;28;21031;-69
2023/11/04 04:38:37;;;;;;;6.50;6.40;;;22.00;75.60;;;;;;5024324;28;20489;-69
2023/11/04 04:41:05;;;;;;;6.47;6.37;;;22.00;75.60;;;;;;5022467;28;20438;-69
2023/11/04 04:43:32;;;;;;;6.60;6.50;;;22.00;75.70;;;;;;5026957;28;20469;-70
2023/11/04 04:46:02;;;;;;;7.97;7.80;;;22.00;75.60;;;;;;5022908;28;20486;-69
2023/11/04 04:48:29;;;;;;;6.80;6.70;;;22.00;75.50;;;;;;5023183;28;20438;-69
2023/11/04 04:50:56;;;;;;;6.83;6.73;;;22.00;75.40;;;;;;5020518;28;20474;-69
2023/11/04 04:53:23;;;;;;;7.10;7.00;;;22.00;75.50;;;;;;5021011;28;20473;-69
2023/11/04 04:55:53;;;;;;;6.70;6.60;;;22.00;75.40;;;;;;5025191;28;20508;-69
2023/11/04 04:58:22;;;;;;;6.93;6.83;;;22.00;75.40;;;;;;5023339;28;20463;-69
2023/11/04 05:00:48;;;;;;;7.20;7.10;;;22.00;75.50;;;;;;5021708;28;20457;-69
2023/11/04 05:03:15;;;;;;;7.30;7.20;;;22.00;75.60;;;;;;5023652;28;20506;-69
2023/11/04 05:05:42;;;;;;;7.03;6.93;;;22.00;75.40;;;;;;5021747;28;20498;-69
2023/11/04 05:08:09;;;;;;;7.10;6.80;;;22.00;75.50;;;;;;5022861;28;20446;-69
2023/11/04 05:10:36;;;;;;;7.83;7.63;;;22.10;75.70;;;;;;5021853;28;20501;-69
2023/11/04 05:13:03;;;;;;;7.60;7.40;;;22.00;75.60;;;;;;5021923;28;20477;-69
2023/11/04 05:15:31;;;;;;;6.90;6.80;;;22.00;75.70;;;;;;5013925;28;20858;-69
2023/11/04 05:17:59;;;;;;;7.30;7.20;;;22.00;75.70;;;;;;5022049;28;20862;-69
2023/11/04 05:20:26;;;;;;;7.37;7.23;;;22.00;75.60;;;;;;5023091;28;20465;-69
2023/11/04 05:22:53;;;;;;;7.17;7.07;;;22.00;75.60;;;;;;5007591;28;20485;-69
2023/11/04 05:25:20;;;;;;;7.43;7.33;;;22.00;75.60;;;;;;5022317;28;20893;-69
2023/11/04 05:27:46;;;;;;;7.30;7.20;;;22.10;75.60;;;;;;5021951;28;20901;-69
2023/11/04 05:30:14;;;;;;;7.50;7.30;;;22.10;75.60;;;;;;5023037;28;20878;-70
2023/11/04 05:32:42;;;;;;;7.20;7.00;;;22.10;75.70;;;;;;5021492;28;20438;-69
2023/11/04 05:35:09;;;;;;;7.43;7.30;;;22.10;75.80;;;;;;5022011;28;20482;-69
2023/11/04 05:37:36;;;;;;;7.37;7.27;;;22.10;75.80;;;;;;5024855;28;20480;-70
2023/11/04 05:40:04;;;;;;;7.77;7.60;;;22.10;75.80;;;;;;5024935;28;20476;-69
2023/11/04 05:42:31;;;;;;;7.30;7.20;;;22.10;75.70;;;;;;5015574;28;20450;-69
2023/11/04 05:44:58;;;;;;;7.23;7.13;;;22.10;75.70;;;;;;5021117;28;20453;-69
2023/11/04 05:47:25;;;;;;;7.10;7.00;;;22.10;75.70;;;;;;5023868;28;20445;-69
2023/11/04 05:49:53;;;;;;;7.40;7.20;;;22.10;75.70;;;;;;5024373;28;20488;-69
2023/11/04 05:52:20;;;;;;;7.90;7.70;;;22.10;75.70;;;;;;5021725;28;20536;-69
2023/11/04 05:54:47;;;;;;;7.30;7.20;;;22.10;75.70;;;;;;5020753;28;20508;-69
2023/11/04 05:57:15;;;;;;;7.63;7.43;;;22.10;75.70;;;;;;5022439;28;20478;-69
2023/11/04 05:59:43;;;;;;;7.80;7.60;;;22.10;76.40;;;;;;5024349;28;20849;-69
2023/11/04 06:02:10;;;;;;;7.07;6.97;;;22.10;75.70;;;;;;5023292;28;20473;-69
2023/11/04 06:04:37;;;;;;;7.17;7.07;;;22.10;75.70;;;;;;5020594;28;20536;-70
2023/11/04 06:07:05;;;;;;;7.10;7.00;;;22.10;75.70;;;;;;5024561;28;20870;-70
2023/11/04 06:09:32;;;;;;;7.30;7.20;;;22.10;75.90;;;;;;5012935;28;20480;-69
2023/11/04 06:12:00;;;;;;;7.40;7.20;;;22.10;75.80;;;;;;5022219;28;20438;-69
2023/11/04 06:14:28;;;;;;;7.47;7.27;;;22.10;75.70;;;;;;5021222;28;20478;-69
2023/11/04 06:16:55;;;;;;;6.50;6.40;;;22.10;76.40;;;;;;5020939;28;20496;-69
2023/11/04 06:19:22;;;;;;;6.80;6.70;;;22.20;75.80;;;;;;5023254;28;20950;-69
2023/11/04 06:21:49;;;;;;;6.50;6.30;;;22.10;75.70;;;;;;5023420;28;20933;-69
2023/11/04 06:24:17;;;;;;;8.13;7.93;;;22.10;75.60;;;;;;5022701;28;20870;-70
2023/11/04 06:26:44;;;;;;;6.93;6.73;;;22.10;75.60;;;;;;5020758;28;20596;-70
2023/11/04 06:29:11;;;;;;;7.87;7.67;;;22.20;75.60;;;;;;5020839;28;20490;-69
2023/11/04 06:31:38;;;;;;;7.40;7.30;;;22.20;75.60;;;;;;5024312;28;20469;-69
2023/11/04 06:34:06;;;;;;;7.40;7.20;;;22.20;75.60;;;;;;5024210;28;20859;-70
2023/11/04 06:36:33;;;;;;;7.40;7.30;;;22.20;75.70;;;;;;5012422;28;20482;-69
2023/11/04 06:39:00;;;;;;;7.40;7.20;;;22.20;75.80;;;;;;5026541;28;20896;-69
2023/11/04 06:41:28;;;;;;;7.90;7.70;;;22.20;75.80;;;;;;5024832;28;20444;-69
2023/11/04 06:43:57;;;;;;;7.50;7.30;;;22.20;75.70;;;;;;5030436;28;20437;-69
2023/11/04 06:46:24;;;;;;;8.37;8.17;;;22.20;75.70;;;;;;5028192;28;20888;-69
2023/11/04 06:48:51;;;;;;;8.17;8.07;;;22.20;75.70;;;;;;5026322;28;20473;-69
2023/11/04 06:51:19;;;;;;;7.20;7.10;;;22.20;75.70;;;;;;5027876;28;21150;-69
2023/11/04 06:53:46;;;;;;;7.80;7.50;;;22.20;76.00;;;;;;5030579;28;20802;-69
2023/11/04 06:56:13;;;;;;;7.63;7.53;;;22.20;76.20;;;;;;5029682;28;20512;-69
2023/11/04 06:58:42;;;;;;;7.60;7.50;;;22.20;76.00;;;;;;5027353;28;20875;-69
2023/11/04 07:01:14;;;;;;;8.10;7.90;;;22.20;75.90;;;;;;5026716;28;20500;-69
2023/11/04 07:03:42;;;;;;;7.57;7.47;;;22.20;76.00;;;;;;5030473;28;20806;-69
2023/11/04 07:06:13;;;;;;;8.90;8.60;;;22.20;75.80;;;;;;5029767;28;21012;-69
2023/11/04 07:08:42;;;;;;;8.03;7.80;;;22.20;75.90;;;;;;5026834;28;20442;-69
2023/11/04 07:11:09;;;;;;;7.70;7.60;;;22.20;75.90;;;;;;5026083;28;20453;-69
2023/11/04 07:13:36;;;;;;;7.97;7.80;;;22.20;76.00;;;;;;5030114;28;20472;-69
2023/11/04 07:16:05;;;;;;;8.37;8.17;;;22.20;76.00;;;;;;5029948;28;20568;-69
2023/11/04 07:18:33;;;;;;;7.90;7.70;;;22.20;76.10;;;;;;5026718;28;20473;-71
2023/11/04 07:21:00;;;;;;;7.83;7.73;;;22.30;76.00;;;;;;5024669;28;20454;-75
2023/11/04 07:23:27;;;;;;;7.40;7.30;;;22.30;76.70;;;;;;5026760;28;20959;-70
2023/11/04 07:25:54;;;;;;;8.53;7.90;;;22.40;76.20;;;;;;5024964;28;20490;-68
2023/11/04 07:28:22;;;;;;;8.33;8.13;;;22.40;76.50;;;;;;5028274;28;20481;-67
2023/11/04 07:30:49;;;;;;;8.57;8.37;;;22.50;76.70;;;;;;5030027;28;20452;-67
2023/11/04 07:33:17;;;;;;;7.83;7.67;;;22.50;76.50;;;;;;5028968;28;20469;-67
2023/11/04 07:35:44;;;;;;;8.37;8.07;;;22.50;76.40;;;;;;5026263;28;20569;-67
2023/11/04 07:38:11;;;;;;;8.00;7.90;;;22.60;76.30;;;;;;5026837;28;20476;-67
2023/11/04 07:40:38;;;;;;;8.70;8.50;;;22.60;76.20;;;;;;5029862;28;20476;-68
2023/11/04 07:43:05;;;;;;;8.30;8.10;;;22.60;76.10;;;;;;5029775;28;20444;-67
2023/11/04 07:45:32;;;;;;;8.87;8.67;;;22.60;76.00;;;;;;5026360;28;20507;-67
2023/11/04 07:47:59;;;;;;;9.27;9.07;;;22.70;76.10;;;;;;5026661;28;20474;-68
2023/11/04 07:50:27;;;;;;;8.70;8.50;;;22.60;75.80;;;;;;5024245;28;20488;-67
2023/11/04 07:52:54;;;;;;;8.20;8.10;;;22.70;75.80;;;;;;5026467;28;20472;-67
2023/11/04 07:55:21;;;;;;;8.73;8.43;;;22.70;75.80;;;;;;5024614;28;20564;-67
2023/11/04 07:57:49;;;;;;;8.47;8.33;;;22.70;75.80;;;;;;5010308;28;21292;-67
2023/11/04 08:00:17;;;;;;;8.30;8.10;;;22.70;76.40;;;;;;5027196;28;20484;-74
2023/11/04 08:02:44;;;;;;;9.33;9.03;;;22.70;75.30;;;;;;5023206;28;20973;-72
2023/11/04 08:05:11;;;;;;;8.70;8.50;;;22.70;75.20;;;;;;5024106;28;20465;-71
2023/11/04 08:07:40;;;;;;;10.53;10.13;;;22.70;75.20;;;;;;5030836;28;20503;-72
2023/11/04 08:10:08;;;;;;;9.20;8.90;;;22.70;75.30;;;;;;5027499;28;20445;-72
2023/11/04 08:12:36;;;;;;;9.10;8.90;;;22.60;75.30;;;;;;5024753;28;20450;-72
2023/11/04 08:15:05;;;;;;;9.10;8.90;;;22.60;75.20;;;;;;5025455;28;20865;-75
2023/11/04 08:17:33;;;;;;;9.13;8.93;;;22.60;75.30;;;;;;5029990;28;20447;-73
2023/11/04 08:20:05;;;;;;;9.70;9.50;;;22.60;75.80;;;;;;5026163;28;20929;-73
2023/11/04 08:22:32;;;;;;;10.90;10.70;;;22.60;75.50;;;;;;5025917;28;20787;-73
2023/11/04 08:25:01;;;;;;;9.33;9.13;;;22.60;75.70;;;;;;5026107;28;20548;-67
2023/11/04 08:27:28;;;;;;;9.20;9.00;;;22.70;75.00;;;;;;5026217;28;20469;-71
2023/11/04 08:29:55;;;;;;;9.50;9.30;;;22.70;75.00;;;;;;5022258;28;20481;-69
2023/11/04 08:32:22;;;;;;;9.50;9.30;;;22.70;75.00;;;;;;5023855;28;20449;-72
2023/11/04 08:34:49;;;;;;;9.07;8.87;;;22.70;75.40;;;;;;5026495;28;20968;-70
2023/11/04 08:37:16;;;;;;;8.60;8.40;;;22.60;75.80;;;;;;5026859;28;20473;-71
2023/11/04 08:39:42;;;;;;;9.27;9.00;;;22.70;76.90;;;;;;5025050;28;21190;-71
2023/11/04 08:42:11;;;;;;;9.30;9.10;;;22.70;76.10;;;;;;5024454;28;20445;-73
2023/11/04 08:44:38;;;;;;;9.60;9.30;;;22.70;77.00;;;;;;5014388;28;20470;-70
2023/11/04 08:47:05;;;;;;;9.27;9.07;;;22.70;76.00;;;;;;5016145;28;20484;-71
2023/11/04 08:49:32;;;;;;;8.83;8.63;;;22.70;75.70;;;;;;5020342;28;21370;-73
2023/11/04 08:51:59;;;;;;;8.97;8.77;;;22.70;75.70;;;;;;5025850;28;20971;-72
2023/11/04 08:54:26;;;;;;;9.00;8.70;;;22.70;75.70;;;;;;5023627;28;20473;-72
2023/11/04 08:56:53;;;;;;;9.20;9.00;;;22.70;75.60;;;;;;5053650;22;20539;-66
2023/11/04 08:59:21;;;;;;;9.57;9.20;;;22.70;75.50;;;;;;5052603;28;20467;-66
2023/11/04 09:01:48;;;;;;;9.43;9.23;;;22.80;75.60;;;;;;5054584;28;20472;-67
2023/11/04 09:04:15;;;;;;;10.30;9.87;;;22.80;75.30;;;;;;5053809;28;20464;-67
2023/11/04 09:06:42;;;;;;;9.43;9.23;;;22.80;75.10;;;;;;5029562;28;20466;-67
2023/11/04 09:09:09;;;;;;;10.13;9.93;;;22.80;75.10;;;;;;5015323;28;20473;-68
2023/11/04 09:11:36;;;;;;;9.23;9.03;;;22.80;75.20;;;;;;5015849;28;20489;-67
2023/11/04 09:14:04;;;;;;;10.60;10.40;;;22.80;75.20;;;;;;5016163;28;20438;-66
2023/11/04 09:16:32;;;;;;;9.53;9.33;;;22.80;74.90;;;;;;5024791;28;20489;-66
2023/11/04 09:19:00;;;;;;;9.40;9.20;;;22.80;74.90;;;;;;5034998;28;20884;-64
2023/11/04 09:21:27;;;;;;;9.27;8.97;;;22.80;74.70;;;;;;5034323;28;20499;-69
2023/11/04 09:23:53;;;;;;;9.80;9.60;;;22.80;74.30;;;;;;5035344;28;20479;-67
2023/11/04 09:26:20;;;;;;;9.70;9.30;;;22.80;74.50;;;;;;5033130;28;20485;-69
2023/11/04 09:28:48;;;;;;;9.40;9.20;;;22.80;74.60;;;;;;5033939;28;20441;-68
2023/11/04 09:31:14;;;;;;;9.27;8.97;;;22.90;74.70;;;;;;5033048;28;20456;-69
2023/11/04 09:33:43;;;;;;;9.40;9.20;;;22.90;75.00;;;;;;5032981;28;20480;-72
2023/11/04 09:36:12;;;;;;;9.43;9.13;;;22.90;74.30;;;;;;5026914;28;20941;-72
2023/11/04 09:38:40;;;;;;;10.00;9.40;;;22.90;74.60;;;;;;5023689;28;20461;-67
2023/11/04 09:41:07;;;;;;;9.50;9.10;;;22.90;75.50;;;;;;5035152;28;20507;-65
2023/11/04 09:43:34;;;;;;;9.60;9.40;;;22.90;74.40;;;;;;5032982;28;20448;-67
2023/11/04 09:46:02;;;;;;;9.13;8.93;;;22.90;74.50;;;;;;5028427;28;20520;-69
2023/11/04 09:48:32;;;;;;;9.20;9.00;;;22.90;75.10;;;;;;5028648;28;20487;-69
2023/11/04 09:51:03;;;;;;;9.57;9.30;;;22.90;74.80;;;;;;5032627;28;20448;-68
2023/11/04 09:53:34;;;;;;;9.50;9.20;;;22.90;74.90;;;;;;5033078;28;20445;-69
2023/11/04 09:56:02;;;;;;;10.00;9.70;;;22.90;75.70;;;;;;5029685;28;20572;-68
2023/11/04 09:58:30;;;;;;;10.00;9.70;;;23.00;76.40;;;;;;5013819;28;20877;-68
2023/11/04 10:00:58;;;;;;;10.10;9.90;;;23.00;75.70;;;;;;5013077;28;20446;-68
2023/11/04 10:03:25;;;;;;;10.03;9.63;;;23.00;75.90;;;;;;5013686;28;20469;-68
2023/11/04 10:05:52;;;;;;;9.00;8.80;;;23.00;75.50;;;;;;5013801;28;20480;-67
2023/11/04 10:08:20;;;;;;;10.03;9.63;;;23.00;75.70;;;;;;5027334;28;20804;-67
2023/11/04 10:10:47;;;;;;;9.93;9.67;;;23.00;75.10;;;;;;5034279;28;20472;-68
2023/11/04 10:13:16;;;;;;;9.37;9.17;;;23.00;74.30;;;;;;5031928;28;20441;-68
2023/11/04 10:15:43;;;;;;;9.67;9.47;;;23.00;75.50;;;;;;5032204;28;20817;-68
2023/11/04 10:18:09;;;;;;;10.07;9.60;;;23.00;74.40;;;;;;5013079;28;20478;-69
2023/11/04 10:20:37;;;;;;;10.00;9.77;;;23.00;75.20;;;;;;5012884;28;20478;-69
2023/11/04 10:23:05;;;;;;;10.13;9.90;;;23.00;74.40;;;;;;5013129;28;20477;-69
2023/11/04 10:25:33;;;;;;;9.67;9.47;;;23.00;74.50;;;;;;5012969;28;20465;-70
2023/11/04 10:28:00;;;;;;;9.50;9.30;;;23.00;74.50;;;;;;5014551;28;20485;-69
2023/11/04 10:30:27;;;;;;;9.87;9.57;;;23.00;74.30;;;;;;5012891;28;20478;-68
2023/11/04 10:32:57;;;;;;;9.77;9.57;;;23.00;74.50;;;;;;5013115;28;20496;-70
2023/11/04 10:35:26;;;;;;;8.77;8.57;;;23.00;74.20;;;;;;5013233;28;20501;-68
2023/11/04 10:37:56;;;;;;;8.73;8.53;;;23.10;74.20;;;;;;5028940;28;20476;-70
2023/11/04 10:40:25;;;;;;;8.90;8.70;;;23.00;74.10;;;;;;5032549;28;20444;-72
2023/11/04 10:43:02;;;;;;;9.67;9.27;;;23.00;74.00;;;;;;5032292;28;20995;-70
2023/11/04 10:45:37;;;;;;;9.67;9.47;;;23.10;74.20;;;;;;5021908;28;20466;-68
2023/11/04 10:48:11;;;;;;;10.10;9.90;;;23.10;74.70;;;;;;5012788;28;20437;-70
2023/11/04 10:50:43;;;;;;;8.90;8.70;;;23.10;74.70;;;;;;5012580;28;20480;-70
2023/11/04 10:53:14;;;;;;;9.30;9.10;;;23.10;74.10;;;;;;5013096;28;20859;-69
2023/11/04 10:55:49;;;;;;;9.57;9.37;;;23.10;73.90;;;;;;5023340;28;20508;-68
2023/11/04 10:58:24;;;;;;;9.20;9.00;;;23.20;74.30;;;;;;5032480;28;20852;-67
2023/11/04 11:00:52;;;;;;;9.13;8.93;;;23.20;74.40;;;;;;5032078;28;20444;-70
2023/11/04 11:03:21;;;;;;;9.53;9.33;;;23.20;74.00;;;;;;5026042;28;20496;-68
2023/11/04 11:05:50;;;;;;;9.73;9.53;;;23.20;73.70;;;;;;5012205;28;20883;-68
2023/11/04 11:08:19;;;;;;;8.90;8.70;;;23.20;74.40;;;;;;5012823;28;20512;-67
2023/11/04 11:10:51;;;;;;;9.50;9.30;;;23.20;73.80;;;;;;5013045;28;20442;-68
2023/11/04 11:13:24;;;;;;;9.47;9.27;;;23.20;73.60;;;;;;5013082;28;20477;-68
2023/11/04 11:15:51;;;;;;;9.97;9.73;;;23.20;73.70;;;;;;5012493;28;20527;-68
2023/11/04 11:18:26;;;;;;;9.50;9.30;;;23.20;73.60;;;;;;5012749;28;20482;-67
2023/11/04 11:20:53;;;;;;;9.40;9.10;;;23.20;73.70;;;;;;5012640;28;20473;-70
2023/11/04 11:23:28;;;;;;;9.50;9.30;;;23.20;73.30;;;;;;5013597;28;20481;-70
2023/11/04 11:26:04;;;;;;;9.87;9.57;;;23.20;73.60;;;;;;5015542;28;20548;-69
2023/11/04 11:28:37;;;;;;;9.50;9.20;;;23.20;73.50;;;;;;5015900;28;20928;-68
2023/11/04 11:31:05;;;;;;;9.50;9.30;;;23.20;73.60;;;;;;5016077;28;21092;-69
2023/11/04 11:33:32;;;;;;;9.97;9.67;;;23.20;74.10;;;;;;5021986;28;20502;-68
2023/11/04 11:36:00;;;;;;;9.37;9.17;;;23.20;73.40;;;;;;5035170;28;20456;-68
2023/11/04 11:38:28;;;;;;;10.13;9.83;;;23.10;73.70;;;;;;5035533;28;20445;-67
2023/11/04 11:40:55;;;;;;;9.80;9.60;;;23.10;73.20;;;;;;5035302;28;20476;-69
2023/11/04 11:43:23;;;;;;;9.67;9.47;;;23.10;73.00;;;;;;5029778;28;20878;-66
2023/11/04 11:45:51;;;;;;;9.53;9.17;;;23.20;73.00;;;;;;5015130;28;20497;-67
2023/11/04 11:48:18;;;;;;;9.70;9.50;;;23.20;72.40;;;;;;5017858;28;20508;-72
2023/11/04 11:50:46;;;;;;;10.33;10.00;;;23.20;72.80;;;;;;5015115;28;20540;-71
2023/11/04 11:53:13;;;;;;;9.70;9.50;;;23.20;73.20;;;;;;5032570;28;20502;-72
2023/11/04 11:55:41;;;;;;;9.97;9.77;;;23.20;73.20;;;;;;5035371;28;20472;-73
2023/11/04 11:58:09;;;;;;;9.10;8.90;;;23.20;73.00;;;;;;5035119;28;20484;-72
2023/11/04 12:00:37;;;;;;;9.93;9.63;;;23.20;72.80;;;;;;5035000;28;20833;-70
2023/11/04 12:03:07;;;;;;;9.23;8.93;;;23.20;72.60;;;;;;5019956;28;20450;-70
2023/11/04 12:05:38;;;;;;;13.03;12.40;;;23.20;73.00;;;;;;5015326;28;20508;-69
2023/11/04 12:08:06;;;;;;;11.70;11.07;;;23.20;72.80;;;;;;5015093;28;20446;-69
2023/11/04 12:10:37;;;;;;;11.00;10.37;;;23.20;72.80;;;;;;5015764;28;20450;-69
2023/11/04 12:13:05;;;;;;;19.00;12.43;;;23.20;72.70;;;;;;5018738;28;20512;-70
2023/11/04 12:15:32;;;;;;;22.00;13.47;;;23.20;72.90;;;;;;5015179;28;20493;-69
2023/11/04 12:18:02;;;;;;;19.80;12.43;;;23.20;72.80;;;;;;5032233;28;21657;-69
2023/11/04 12:20:32;;;;;;;14.00;12.60;;;23.20;72.90;;;;;;5034690;28;20473;-70
2023/11/04 12:22:59;;;;;;;14.23;12.43;;;23.20;73.10;;;;;;5034028;28;20445;-67
2023/11/04 12:25:27;;;;;;;25.63;14.13;;;23.20;73.20;;;;;;5031327;28;20984;-70
2023/11/04 12:27:54;;;;;;;25.60;14.50;;;23.20;73.70;;;;;;5038911;28;20952;-71
2023/11/04 12:30:21;;;;;;;16.50;13.90;;;23.20;73.60;;;;;;5019814;28;20962;-71
2023/11/04 12:32:50;;;;;;;30.10;16.27;;;23.20;73.10;;;;;;5015407;28;20453;-70
2023/11/04 12:35:17;;;;;;;22.23;14.07;;;23.30;73.00;;;;;;5014197;28;20474;-71
2023/11/04 12:37:46;;;;;;;34.17;15.67;;;23.30;72.80;;;;;;5042121;28;20968;-70
2023/11/04 12:40:13;;;;;;;27.93;17.00;;;23.30;73.30;;;;;;5054173;28;20807;-67
2023/11/04 12:42:41;;;;;;;30.60;15.57;;;23.30;72.30;;;;;;5053737;28;20498;-66
2023/11/04 12:45:09;;;;;;;20.23;14.17;;;23.20;71.70;;;;;;5053951;28;20854;-64
2023/11/04 12:47:38;;;;;;;21.73;15.20;;;23.20;72.20;;;;;;5054417;28;20468;-64